sensor_id;sensor_type;location;lat;lon;timestamp;temperature;humidity
50570;DHT22;36525;49.398;7.614;2023-06-01T00:00:33;14.70;99.90
50570;DHT22;36525;49.398;7.614;2023-06-01T00:03:00;14.60;99.90
50570;DHT22;36525;49.398;7.614;2023-06-01T00:05:27;14.50;99.90
50570;DHT22;36525;49.398;7.614;2023-06-01T00:07:54;14.40;99.90
50570;DHT22;36525;49.398;7.614;2023-06-01T00:10:21;14.40;99.90
50570;DHT22;36525;49.398;7.614;2023-06-01T00:12:48;14.40;99.90
50570;DHT22;36525;49.398;7.614;2023-06-01T00:15:15;14.30;99.90
50570;DHT22;36525;49.398;7.614;2023-06-01T00:17:42;14.30;99.90
50570;DHT22;36525;49.398;7.614;2023-06-01T00:20:09;14.20;99.90
50570;DHT22;36525;49.398;7.614;2023-06-01T00:22:36;14.30;99.90
50570;DHT22;36525;49.398;7.614;2023-06-01T00:25:08;14.20;99.90
50570;DHT22;36525;49.398;7.614;2023-06-01T00:27:36;14.20;99.90
50570;DHT22;36525;49.398;7.614;2023-06-01T00:30:03;14.10;99.90
50570;DHT22;36525;49.398;7.614;2023-06-01T00:32:31;14.10;99.90
50570;DHT22;36525;49.398;7.614;2023-06-01T00:34:58;14.00;99.90
50570;DHT22;36525;49.398;7.614;2023-06-01T00:37:25;14.00;99.90
50570;DHT22;36525;49.398;7.614;2023-06-01T00:39:52;13.90;99.90
50570;DHT22;36525;49.398;7.614;2023-06-01T00:42:19;13.90;99.90
50570;DHT22;36525;49.398;7.614;2023-06-01T00:44:46;13.80;99.90
50570;DHT22;36525;49.398;7.614;2023-06-01T00:47:14;13.70;99.90
50570;DHT22;36525;49.398;7.614;2023-06-01T00:49:42;13.60;99.90
50570;DHT22;36525;49.398;7.614;2023-06-01T00:52:09;13.60;99.90
50570;DHT22;36525;49.398;7.614;2023-06-01T00:54:37;13.60;99.90
50570;DHT22;36525;49.398;7.614;2023-06-01T00:57:04;13.50;99.90
50570;DHT22;36525;49.398;7.614;2023-06-01T00:59:34;13.50;99.90
50570;DHT22;36525;49.398;7.614;2023-06-01T01:02:01;13.50;99.90
50570;DHT22;36525;49.398;7.614;2023-06-01T01:04:30;13.40;99.90
50570;DHT22;36525;49.398;7.614;2023-06-01T01:09:55;13.40;99.90
50570;DHT22;36525;49.398;7.614;2023-06-01T01:18:07;13.40;99.90
50570;DHT22;36525;49.398;7.614;2023-06-01T01:20:47;13.50;99.90
50570;DHT22;36525;49.398;7.614;2023-06-01T01:23:42;13.50;99.90
50570;DHT22;36525;49.398;7.614;2023-06-01T01:29:24;13.50;99.90
50570;DHT22;36525;49.398;7.614;2023-06-01T01:31:54;13.50;99.90
50570;DHT22;36525;49.398;7.614;2023-06-01T01:34:23;13.40;99.90
50570;DHT22;36525;49.398;7.614;2023-06-01T01:36:54;13.30;99.90
50570;DHT22;36525;49.398;7.614;2023-06-01T01:39:22;13.10;99.90
50570;DHT22;36525;49.398;7.614;2023-06-01T01:41:49;13.00;99.90
50570;DHT22;36525;49.398;7.614;2023-06-01T01:44:16;12.90;99.90
50570;DHT22;36525;49.398;7.614;2023-06-01T01:47:41;12.80;99.90
50570;DHT22;36525;49.398;7.614;2023-06-01T01:49:44;12.80;99.90
50570;DHT22;36525;49.398;7.614;2023-06-01T01:52:25;12.80;99.90
50570;DHT22;36525;49.398;7.614;2023-06-01T01:54:54;12.70;99.90
50570;DHT22;36525;49.398;7.614;2023-06-01T01:57:23;12.70;99.90
50570;DHT22;36525;49.398;7.614;2023-06-01T01:59:52;12.70;99.90
50570;DHT22;36525;49.398;7.614;2023-06-01T02:02:23;12.70;99.90
50570;DHT22;36525;49.398;7.614;2023-06-01T02:04:50;12.70;99.90
50570;DHT22;36525;49.398;7.614;2023-06-01T02:07:17;12.70;99.90
50570;DHT22;36525;49.398;7.614;2023-06-01T02:09:44;12.70;99.90
50570;DHT22;36525;49.398;7.614;2023-06-01T02:12:11;12.70;99.90
50570;DHT22;36525;49.398;7.614;2023-06-01T02:14:39;12.70;99.90
50570;DHT22;36525;49.398;7.614;2023-06-01T02:17:06;12.70;99.90
50570;DHT22;36525;49.398;7.614;2023-06-01T02:19:34;12.70;99.90
50570;DHT22;36525;49.398;7.614;2023-06-01T02:22:01;12.70;99.90
50570;DHT22;36525;49.398;7.614;2023-06-01T02:24:28;12.60;99.90
50570;DHT22;36525;49.398;7.614;2023-06-01T02:26:57;12.50;99.90
50570;DHT22;36525;49.398;7.614;2023-06-01T02:29:24;12.50;99.90
50570;DHT22;36525;49.398;7.614;2023-06-01T02:31:52;12.40;99.90
50570;DHT22;36525;49.398;7.614;2023-06-01T02:34:20;12.40;99.90
50570;DHT22;36525;49.398;7.614;2023-06-01T02:36:47;12.40;99.90
50570;DHT22;36525;49.398;7.614;2023-06-01T02:39:15;12.50;99.90
50570;DHT22;36525;49.398;7.614;2023-06-01T02:41:44;12.40;99.90
50570;DHT22;36525;49.398;7.614;2023-06-01T02:44:11;12.40;99.90
50570;DHT22;36525;49.398;7.614;2023-06-01T02:46:39;12.40;99.90
50570;DHT22;36525;49.398;7.614;2023-06-01T02:49:06;12.30;99.90
50570;DHT22;36525;49.398;7.614;2023-06-01T02:51:33;12.30;99.90
50570;DHT22;36525;49.398;7.614;2023-06-01T02:54:00;12.30;99.90
50570;DHT22;36525;49.398;7.614;2023-06-01T02:56:27;12.30;99.90
50570;DHT22;36525;49.398;7.614;2023-06-01T02:58:54;12.40;99.90
50570;DHT22;36525;49.398;7.614;2023-06-01T03:01:22;12.30;99.90
50570;DHT22;36525;49.398;7.614;2023-06-01T03:03:49;12.30;99.90
50570;DHT22;36525;49.398;7.614;2023-06-01T03:06:19;12.20;99.90
50570;DHT22;36525;49.398;7.614;2023-06-01T03:08:50;12.20;99.90
50570;DHT22;36525;49.398;7.614;2023-06-01T03:11:17;12.10;99.90
50570;DHT22;36525;49.398;7.614;2023-06-01T03:13:45;12.00;99.90
50570;DHT22;36525;49.398;7.614;2023-06-01T03:16:12;12.00;99.90
50570;DHT22;36525;49.398;7.614;2023-06-01T03:18:39;12.00;99.90
50570;DHT22;36525;49.398;7.614;2023-06-01T03:21:06;12.00;99.90
50570;DHT22;36525;49.398;7.614;2023-06-01T03:23:33;12.00;99.90
50570;DHT22;36525;49.398;7.614;2023-06-01T03:26:00;12.00;99.90
50570;DHT22;36525;49.398;7.614;2023-06-01T03:28:31;12.00;99.90
50570;DHT22;36525;49.398;7.614;2023-06-01T03:30:58;12.00;99.90
50570;DHT22;36525;49.398;7.614;2023-06-01T03:33:25;12.00;99.90
50570;DHT22;36525;49.398;7.614;2023-06-01T03:35:52;12.00;99.90
50570;DHT22;36525;49.398;7.614;2023-06-01T03:38:19;12.00;99.90
50570;DHT22;36525;49.398;7.614;2023-06-01T03:40:46;12.00;99.90
50570;DHT22;36525;49.398;7.614;2023-06-01T03:43:14;12.00;99.90
50570;DHT22;36525;49.398;7.614;2023-06-01T03:45:40;12.00;99.90
50570;DHT22;36525;49.398;7.614;2023-06-01T03:48:07;11.90;99.90
50570;DHT22;36525;49.398;7.614;2023-06-01T03:50:35;11.90;99.90
50570;DHT22;36525;49.398;7.614;2023-06-01T03:53:02;11.90;99.90
50570;DHT22;36525;49.398;7.614;2023-06-01T03:55:29;11.90;99.90
50570;DHT22;36525;49.398;7.614;2023-06-01T03:57:57;11.90;99.90
50570;DHT22;36525;49.398;7.614;2023-06-01T04:00:24;11.90;99.90
50570;DHT22;36525;49.398;7.614;2023-06-01T04:02:54;11.90;99.90
50570;DHT22;36525;49.398;7.614;2023-06-01T04:05:25;11.90;99.90
50570;DHT22;36525;49.398;7.614;2023-06-01T04:07:54;11.80;99.90
50570;DHT22;36525;49.398;7.614;2023-06-01T04:10:22;11.90;99.90
50570;DHT22;36525;49.398;7.614;2023-06-01T04:12:50;11.90;99.90
50570;DHT22;36525;49.398;7.614;2023-06-01T04:15:19;12.00;99.90
50570;DHT22;36525;49.398;7.614;2023-06-01T04:17:47;12.00;99.90
50570;DHT22;36525;49.398;7.614;2023-06-01T04:20:16;12.00;99.90
50570;DHT22;36525;49.398;7.614;2023-06-01T04:22:45;12.10;99.90
50570;DHT22;36525;49.398;7.614;2023-06-01T04:25:15;12.20;99.90
50570;DHT22;36525;49.398;7.614;2023-06-01T04:27:47;12.20;99.90
50570;DHT22;36525;49.398;7.614;2023-06-01T04:30:15;12.20;99.90
50570;DHT22;36525;49.398;7.614;2023-06-01T04:32:43;12.30;99.90
50570;DHT22;36525;49.398;7.614;2023-06-01T04:35:13;12.40;99.90
50570;DHT22;36525;49.398;7.614;2023-06-01T04:37:41;12.50;99.90
50570;DHT22;36525;49.398;7.614;2023-06-01T04:40:10;12.60;99.90
50570;DHT22;36525;49.398;7.614;2023-06-01T04:42:42;12.70;99.90
50570;DHT22;36525;49.398;7.614;2023-06-01T04:45:12;12.80;99.90
50570;DHT22;36525;49.398;7.614;2023-06-01T04:47:40;12.80;99.90
50570;DHT22;36525;49.398;7.614;2023-06-01T04:50:09;12.80;99.90
50570;DHT22;36525;49.398;7.614;2023-06-01T04:52:38;13.00;99.90
50570;DHT22;36525;49.398;7.614;2023-06-01T04:55:07;13.00;99.90
50570;DHT22;36525;49.398;7.614;2023-06-01T04:57:36;13.00;99.90
50570;DHT22;36525;49.398;7.614;2023-06-01T05:00:06;13.10;99.90
50570;DHT22;36525;49.398;7.614;2023-06-01T05:02:39;13.10;99.90
50570;DHT22;36525;49.398;7.614;2023-06-01T05:05:08;13.20;99.90
50570;DHT22;36525;49.398;7.614;2023-06-01T05:07:36;13.30;99.90
50570;DHT22;36525;49.398;7.614;2023-06-01T05:10:10;13.40;99.90
50570;DHT22;36525;49.398;7.614;2023-06-01T05:12:38;13.50;99.90
50570;DHT22;36525;49.398;7.614;2023-06-01T05:15:07;13.60;99.90
50570;DHT22;36525;49.398;7.614;2023-06-01T05:17:35;13.80;99.90
50570;DHT22;36525;49.398;7.614;2023-06-01T05:20:02;14.00;99.90
50570;DHT22;36525;49.398;7.614;2023-06-01T05:22:30;14.20;99.90
50570;DHT22;36525;49.398;7.614;2023-06-01T05:24:57;14.40;99.90
50570;DHT22;36525;49.398;7.614;2023-06-01T05:27:24;14.60;99.90
50570;DHT22;36525;49.398;7.614;2023-06-01T05:29:51;14.90;99.90
50570;DHT22;36525;49.398;7.614;2023-06-01T05:32:18;15.10;99.90
50570;DHT22;36525;49.398;7.614;2023-06-01T05:34:45;15.30;99.90
50570;DHT22;36525;49.398;7.614;2023-06-01T05:37:13;15.50;99.90
50570;DHT22;36525;49.398;7.614;2023-06-01T05:39:40;15.70;99.90
50570;DHT22;36525;49.398;7.614;2023-06-01T05:42:08;15.80;99.90
50570;DHT22;36525;49.398;7.614;2023-06-01T05:44:35;16.00;99.90
50570;DHT22;36525;49.398;7.614;2023-06-01T05:47:02;16.20;99.90
50570;DHT22;36525;49.398;7.614;2023-06-01T05:49:35;16.40;99.90
50570;DHT22;36525;49.398;7.614;2023-06-01T05:52:03;16.60;99.90
50570;DHT22;36525;49.398;7.614;2023-06-01T05:54:31;16.60;99.90
50570;DHT22;36525;49.398;7.614;2023-06-01T05:56:58;16.80;99.90
50570;DHT22;36525;49.398;7.614;2023-06-01T05:59:25;16.80;99.90
50570;DHT22;36525;49.398;7.614;2023-06-01T06:01:52;16.90;99.90
50570;DHT22;36525;49.398;7.614;2023-06-01T06:04:22;17.00;99.90
50570;DHT22;36525;49.398;7.614;2023-06-01T06:06:52;17.10;99.90
50570;DHT22;36525;49.398;7.614;2023-06-01T06:09:20;17.20;99.90
50570;DHT22;36525;49.398;7.614;2023-06-01T06:11:47;17.30;99.90
50570;DHT22;36525;49.398;7.614;2023-06-01T06:14:14;17.40;99.90
50570;DHT22;36525;49.398;7.614;2023-06-01T06:16:42;17.40;99.90
50570;DHT22;36525;49.398;7.614;2023-06-01T06:19:09;17.40;99.90
50570;DHT22;36525;49.398;7.614;2023-06-01T06:21:37;17.60;99.90
50570;DHT22;36525;49.398;7.614;2023-06-01T06:24:04;17.70;99.90
50570;DHT22;36525;49.398;7.614;2023-06-01T06:26:32;17.80;99.90
50570;DHT22;36525;49.398;7.614;2023-06-01T06:28:59;17.80;99.90
50570;DHT22;36525;49.398;7.614;2023-06-01T06:31:26;17.80;99.90
50570;DHT22;36525;49.398;7.614;2023-06-01T06:33:53;17.90;99.90
50570;DHT22;36525;49.398;7.614;2023-06-01T06:36:20;18.00;99.90
50570;DHT22;36525;49.398;7.614;2023-06-01T06:38:47;18.00;99.90
50570;DHT22;36525;49.398;7.614;2023-06-01T06:41:15;18.10;99.90
50570;DHT22;36525;49.398;7.614;2023-06-01T06:43:42;18.20;99.90
50570;DHT22;36525;49.398;7.614;2023-06-01T06:46:09;18.30;99.90
50570;DHT22;36525;49.398;7.614;2023-06-01T06:48:36;18.50;99.90
50570;DHT22;36525;49.398;7.614;2023-06-01T06:51:03;18.60;99.90
50570;DHT22;36525;49.398;7.614;2023-06-01T06:53:31;18.70;99.90
50570;DHT22;36525;49.398;7.614;2023-06-01T06:56:00;18.90;99.90
50570;DHT22;36525;49.398;7.614;2023-06-01T06:58:27;18.90;99.90
50570;DHT22;36525;49.398;7.614;2023-06-01T07:00:54;19.00;99.90
50570;DHT22;36525;49.398;7.614;2023-06-01T07:03:21;19.10;99.90
50570;DHT22;36525;49.398;7.614;2023-06-01T07:05:48;19.30;99.90
50570;DHT22;36525;49.398;7.614;2023-06-01T07:08:16;19.40;99.90
50570;DHT22;36525;49.398;7.614;2023-06-01T07:10:43;19.40;99.90
50570;DHT22;36525;49.398;7.614;2023-06-01T07:13:10;19.40;99.90
50570;DHT22;36525;49.398;7.614;2023-06-01T07:15:37;19.50;99.90
50570;DHT22;36525;49.398;7.614;2023-06-01T07:18:04;19.60;99.90
50570;DHT22;36525;49.398;7.614;2023-06-01T07:20:31;19.60;99.90
50570;DHT22;36525;49.398;7.614;2023-06-01T07:22:58;19.60;99.90
50570;DHT22;36525;49.398;7.614;2023-06-01T07:25:26;19.70;99.90
50570;DHT22;36525;49.398;7.614;2023-06-01T07:27:53;19.90;99.90
50570;DHT22;36525;49.398;7.614;2023-06-01T07:30:23;20.00;99.90
50570;DHT22;36525;49.398;7.614;2023-06-01T07:32:50;20.00;99.90
50570;DHT22;36525;49.398;7.614;2023-06-01T07:35:17;20.00;99.90
50570;DHT22;36525;49.398;7.614;2023-06-01T07:37:44;20.10;99.90
50570;DHT22;36525;49.398;7.614;2023-06-01T07:40:12;20.20;99.90
50570;DHT22;36525;49.398;7.614;2023-06-01T07:42:40;20.30;99.90
50570;DHT22;36525;49.398;7.614;2023-06-01T07:45:07;20.60;99.90
50570;DHT22;36525;49.398;7.614;2023-06-01T07:47:35;20.50;99.90
50570;DHT22;36525;49.398;7.614;2023-06-01T07:50:03;20.50;99.90
50570;DHT22;36525;49.398;7.614;2023-06-01T07:52:31;20.50;99.90
50570;DHT22;36525;49.398;7.614;2023-06-01T07:54:58;20.70;99.90
50570;DHT22;36525;49.398;7.614;2023-06-01T07:57:26;20.70;99.90
50570;DHT22;36525;49.398;7.614;2023-06-01T07:59:54;20.70;99.90
50570;DHT22;36525;49.398;7.614;2023-06-01T08:02:21;20.80;99.90
50570;DHT22;36525;49.398;7.614;2023-06-01T08:04:48;20.80;99.90
50570;DHT22;36525;49.398;7.614;2023-06-01T08:07:15;20.90;99.90
50570;DHT22;36525;49.398;7.614;2023-06-01T08:09:43;21.10;99.90
50570;DHT22;36525;49.398;7.614;2023-06-01T08:12:10;21.30;99.90
50570;DHT22;36525;49.398;7.614;2023-06-01T08:14:38;21.30;99.90
50570;DHT22;36525;49.398;7.614;2023-06-01T08:17:07;21.40;99.90
50570;DHT22;36525;49.398;7.614;2023-06-01T08:19:34;21.70;99.90
50570;DHT22;36525;49.398;7.614;2023-06-01T08:22:02;21.80;99.90
50570;DHT22;36525;49.398;7.614;2023-06-01T08:24:34;21.90;99.90
50570;DHT22;36525;49.398;7.614;2023-06-01T08:27:15;22.10;99.90
50570;DHT22;36525;49.398;7.614;2023-06-01T08:29:45;22.30;99.90
50570;DHT22;36525;49.398;7.614;2023-06-01T08:32:14;22.60;99.90
50570;DHT22;36525;49.398;7.614;2023-06-01T08:34:44;22.80;99.90
50570;DHT22;36525;49.398;7.614;2023-06-01T08:37:13;22.70;99.30
50570;DHT22;36525;49.398;7.614;2023-06-01T08:39:40;22.80;99.40
50570;DHT22;36525;49.398;7.614;2023-06-01T08:42:33;23.00;98.90
50570;DHT22;36525;49.398;7.614;2023-06-01T08:45:20;23.10;98.60
50570;DHT22;36525;49.398;7.614;2023-06-01T08:47:49;23.40;98.80
50570;DHT22;36525;49.398;7.614;2023-06-01T08:50:20;24.00;98.50
50570;DHT22;36525;49.398;7.614;2023-06-01T08:52:49;24.40;96.80
50570;DHT22;36525;49.398;7.614;2023-06-01T08:55:21;24.60;95.70
50570;DHT22;36525;49.398;7.614;2023-06-01T08:57:49;25.00;95.60
50570;DHT22;36525;49.398;7.614;2023-06-01T09:00:17;25.20;93.70
50570;DHT22;36525;49.398;7.614;2023-06-01T09:02:48;25.80;93.10
50570;DHT22;36525;49.398;7.614;2023-06-01T09:05:16;26.30;92.60
50570;DHT22;36525;49.398;7.614;2023-06-01T09:07:44;26.70;92.10
50570;DHT22;36525;49.398;7.614;2023-06-01T09:10:11;27.10;90.00
50570;DHT22;36525;49.398;7.614;2023-06-01T09:12:38;27.10;86.80
50570;DHT22;36525;49.398;7.614;2023-06-01T09:15:19;27.10;85.40
50570;DHT22;36525;49.398;7.614;2023-06-01T09:17:51;27.20;83.70
50570;DHT22;36525;49.398;7.614;2023-06-01T09:20:27;27.70;84.50
50570;DHT22;36525;49.398;7.614;2023-06-01T09:22:55;28.10;83.10
50570;DHT22;36525;49.398;7.614;2023-06-01T09:25:30;28.50;82.30
50570;DHT22;36525;49.398;7.614;2023-06-01T09:28:01;28.60;81.30
50570;DHT22;36525;49.398;7.614;2023-06-01T09:30:42;28.30;79.90
50570;DHT22;36525;49.398;7.614;2023-06-01T09:33:16;28.60;78.90
50570;DHT22;36525;49.398;7.614;2023-06-01T09:35:47;28.70;78.60
50570;DHT22;36525;49.398;7.614;2023-06-01T09:38:23;28.40;78.20
50570;DHT22;36525;49.398;7.614;2023-06-01T09:41:03;28.60;77.80
50570;DHT22;36525;49.398;7.614;2023-06-01T09:43:34;28.40;75.70
50570;DHT22;36525;49.398;7.614;2023-06-01T09:46:06;28.60;76.60
50570;DHT22;36525;49.398;7.614;2023-06-01T09:48:40;28.10;76.50
50570;DHT22;36525;49.398;7.614;2023-06-01T09:51:22;28.50;77.40
50570;DHT22;36525;49.398;7.614;2023-06-01T09:53:57;28.80;76.30
50570;DHT22;36525;49.398;7.614;2023-06-01T09:56:24;28.70;77.40
50570;DHT22;36525;49.398;7.614;2023-06-01T09:58:58;29.00;76.30
50570;DHT22;36525;49.398;7.614;2023-06-01T10:01:31;29.10;76.60
50570;DHT22;36525;49.398;7.614;2023-06-01T10:04:00;29.10;76.80
50570;DHT22;36525;49.398;7.614;2023-06-01T10:06:28;29.50;75.70
50570;DHT22;36525;49.398;7.614;2023-06-01T10:08:59;29.50;75.80
50570;DHT22;36525;49.398;7.614;2023-06-01T10:11:28;29.40;76.30
50570;DHT22;36525;49.398;7.614;2023-06-01T10:13:56;29.40;75.90
50570;DHT22;36525;49.398;7.614;2023-06-01T10:16:24;29.40;75.60
50570;DHT22;36525;49.398;7.614;2023-06-01T10:18:52;29.30;77.90
50570;DHT22;36525;49.398;7.614;2023-06-01T10:21:19;29.20;74.70
50570;DHT22;36525;49.398;7.614;2023-06-01T10:23:50;29.40;75.00
50570;DHT22;36525;49.398;7.614;2023-06-01T10:26:18;29.50;75.80
50570;DHT22;36525;49.398;7.614;2023-06-01T10:28:50;29.70;74.40
50570;DHT22;36525;49.398;7.614;2023-06-01T10:34:05;29.10;74.20
50570;DHT22;36525;49.398;7.614;2023-06-01T10:39:22;28.80;73.50
50570;DHT22;36525;49.398;7.614;2023-06-01T10:41:51;28.90;73.60
50570;DHT22;36525;49.398;7.614;2023-06-01T10:57:44;29.70;72.40
50570;DHT22;36525;49.398;7.614;2023-06-01T11:02:55;30.00;71.90
50570;DHT22;36525;49.398;7.614;2023-06-01T11:05:43;29.50;72.50
50570;DHT22;36525;49.398;7.614;2023-06-01T11:11:00;29.80;72.20
50570;DHT22;36525;49.398;7.614;2023-06-01T11:13:35;29.90;72.00
50570;DHT22;36525;49.398;7.614;2023-06-01T11:18:44;30.50;72.20
50570;DHT22;36525;49.398;7.614;2023-06-01T11:21:22;30.60;70.30
50570;DHT22;36525;49.398;7.614;2023-06-01T11:24:18;30.00;71.20
50570;DHT22;36525;49.398;7.614;2023-06-01T11:26:55;30.00;71.60
50570;DHT22;36525;49.398;7.614;2023-06-01T11:29:24;30.10;71.70
50570;DHT22;36525;49.398;7.614;2023-06-01T11:31:53;30.10;71.30
50570;DHT22;36525;49.398;7.614;2023-06-01T11:34:39;30.40;70.60
50570;DHT22;36525;49.398;7.614;2023-06-01T11:37:16;30.60;70.60
50570;DHT22;36525;49.398;7.614;2023-06-01T11:39:46;30.40;69.20
50570;DHT22;36525;49.398;7.614;2023-06-01T11:42:15;30.60;69.30
50570;DHT22;36525;49.398;7.614;2023-06-01T11:44:45;30.50;69.20
50570;DHT22;36525;49.398;7.614;2023-06-01T11:47:22;30.20;68.40
50570;DHT22;36525;49.398;7.614;2023-06-01T11:49:55;30.20;68.50
50570;DHT22;36525;49.398;7.614;2023-06-01T11:52:22;30.60;67.40
50570;DHT22;36525;49.398;7.614;2023-06-01T11:54:49;30.50;67.70
50570;DHT22;36525;49.398;7.614;2023-06-01T11:57:19;30.80;67.80
50570;DHT22;36525;49.398;7.614;2023-06-01T11:59:49;30.50;67.30
50570;DHT22;36525;49.398;7.614;2023-06-01T12:02:27;30.70;68.70
50570;DHT22;36525;49.398;7.614;2023-06-01T12:05:02;31.10;65.70
50570;DHT22;36525;49.398;7.614;2023-06-01T12:07:47;31.00;65.00
50570;DHT22;36525;49.398;7.614;2023-06-01T12:10:16;31.00;66.40
50570;DHT22;36525;49.398;7.614;2023-06-01T12:12:46;30.40;64.10
50570;DHT22;36525;49.398;7.614;2023-06-01T12:15:15;31.00;64.00
50570;DHT22;36525;49.398;7.614;2023-06-01T12:17:50;31.20;64.60
50570;DHT22;36525;49.398;7.614;2023-06-01T12:20:36;31.50;65.30
50570;DHT22;36525;49.398;7.614;2023-06-01T12:23:13;32.00;64.80
50570;DHT22;36525;49.398;7.614;2023-06-01T12:25:49;31.80;63.70
50570;DHT22;36525;49.398;7.614;2023-06-01T12:28:18;31.40;64.00
50570;DHT22;36525;49.398;7.614;2023-06-01T12:30:46;31.30;64.20
50570;DHT22;36525;49.398;7.614;2023-06-01T12:33:31;31.80;65.10
50570;DHT22;36525;49.398;7.614;2023-06-01T12:36:03;31.60;63.40
50570;DHT22;36525;49.398;7.614;2023-06-01T12:38:51;31.30;63.90
50570;DHT22;36525;49.398;7.614;2023-06-01T12:41:19;31.70;64.70
50570;DHT22;36525;49.398;7.614;2023-06-01T12:43:48;31.90;63.50
50570;DHT22;36525;49.398;7.614;2023-06-01T12:46:21;32.10;63.60
50570;DHT22;36525;49.398;7.614;2023-06-01T12:48:51;32.50;63.30
50570;DHT22;36525;49.398;7.614;2023-06-01T12:51:20;32.00;62.80
50570;DHT22;36525;49.398;7.614;2023-06-01T12:53:48;32.00;62.40
50570;DHT22;36525;49.398;7.614;2023-06-01T12:56:15;32.40;63.00
50570;DHT22;36525;49.398;7.614;2023-06-01T12:58:43;32.40;61.90
50570;DHT22;36525;49.398;7.614;2023-06-01T13:01:10;32.60;60.30
50570;DHT22;36525;49.398;7.614;2023-06-01T13:03:38;32.20;60.70
50570;DHT22;36525;49.398;7.614;2023-06-01T13:06:05;31.90;60.80
50570;DHT22;36525;49.398;7.614;2023-06-01T13:08:33;32.40;60.70
50570;DHT22;36525;49.398;7.614;2023-06-01T13:11:00;33.00;61.20
50570;DHT22;36525;49.398;7.614;2023-06-01T13:13:27;33.10;61.50
50570;DHT22;36525;49.398;7.614;2023-06-01T13:15:54;33.60;61.50
50570;DHT22;36525;49.398;7.614;2023-06-01T13:18:22;33.30;60.70
50570;DHT22;36525;49.398;7.614;2023-06-01T13:20:49;32.70;60.70
50570;DHT22;36525;49.398;7.614;2023-06-01T13:23:17;33.30;62.30
50570;DHT22;36525;49.398;7.614;2023-06-01T13:25:45;34.00;60.80
50570;DHT22;36525;49.398;7.614;2023-06-01T13:28:12;33.70;60.70
50570;DHT22;36525;49.398;7.614;2023-06-01T13:30:40;33.10;62.10
50570;DHT22;36525;49.398;7.614;2023-06-01T13:33:07;32.50;62.60
50570;DHT22;36525;49.398;7.614;2023-06-01T13:35:35;32.10;61.80
50570;DHT22;36525;49.398;7.614;2023-06-01T13:38:03;32.50;60.70
50570;DHT22;36525;49.398;7.614;2023-06-01T13:40:30;32.60;60.90
50570;DHT22;36525;49.398;7.614;2023-06-01T13:42:57;32.90;60.90
50570;DHT22;36525;49.398;7.614;2023-06-01T13:45:24;33.60;60.70
50570;DHT22;36525;49.398;7.614;2023-06-01T13:47:53;33.60;60.20
50570;DHT22;36525;49.398;7.614;2023-06-01T13:50:22;34.00;58.70
50570;DHT22;36525;49.398;7.614;2023-06-01T13:52:49;33.50;58.90
50570;DHT22;36525;49.398;7.614;2023-06-01T13:55:16;33.90;59.00
50570;DHT22;36525;49.398;7.614;2023-06-01T13:57:44;34.10;59.60
50570;DHT22;36525;49.398;7.614;2023-06-01T14:00:13;33.90;57.70
50570;DHT22;36525;49.398;7.614;2023-06-01T14:02:41;34.00;56.60
50570;DHT22;36525;49.398;7.614;2023-06-01T14:05:08;33.70;58.30
50570;DHT22;36525;49.398;7.614;2023-06-01T14:07:51;33.80;58.30
50570;DHT22;36525;49.398;7.614;2023-06-01T14:10:18;33.90;58.60
50570;DHT22;36525;49.398;7.614;2023-06-01T14:12:45;33.60;58.60
50570;DHT22;36525;49.398;7.614;2023-06-01T14:15:12;33.70;59.20
50570;DHT22;36525;49.398;7.614;2023-06-01T14:17:40;33.50;58.70
50570;DHT22;36525;49.398;7.614;2023-06-01T14:20:07;33.20;57.70
50570;DHT22;36525;49.398;7.614;2023-06-01T14:22:36;34.00;58.50
50570;DHT22;36525;49.398;7.614;2023-06-01T14:25:04;34.50;59.50
50570;DHT22;36525;49.398;7.614;2023-06-01T14:27:32;34.80;58.90
50570;DHT22;36525;49.398;7.614;2023-06-01T14:29:59;35.20;57.40
50570;DHT22;36525;49.398;7.614;2023-06-01T14:32:29;35.00;57.70
50570;DHT22;36525;49.398;7.614;2023-06-01T14:34:57;34.40;58.90
50570;DHT22;36525;49.398;7.614;2023-06-01T14:37:24;34.00;58.40
50570;DHT22;36525;49.398;7.614;2023-06-01T14:40:03;33.90;58.70
50570;DHT22;36525;49.398;7.614;2023-06-01T14:42:31;34.20;58.70
50570;DHT22;36525;49.398;7.614;2023-06-01T14:44:58;34.60;60.20
50570;DHT22;36525;49.398;7.614;2023-06-01T14:47:32;34.70;58.20
50570;DHT22;36525;49.398;7.614;2023-06-01T14:50:00;34.60;59.10
50570;DHT22;36525;49.398;7.614;2023-06-01T14:52:27;34.50;59.60
50570;DHT22;36525;49.398;7.614;2023-06-01T14:54:54;34.30;58.80
50570;DHT22;36525;49.398;7.614;2023-06-01T14:57:21;34.10;58.60
50570;DHT22;36525;49.398;7.614;2023-06-01T14:59:48;33.40;58.40
50570;DHT22;36525;49.398;7.614;2023-06-01T15:02:29;33.80;59.10
50570;DHT22;36525;49.398;7.614;2023-06-01T15:04:56;34.20;57.90
50570;DHT22;36525;49.398;7.614;2023-06-01T15:07:24;34.50;57.20
50570;DHT22;36525;49.398;7.614;2023-06-01T15:09:52;34.50;58.00
50570;DHT22;36525;49.398;7.614;2023-06-01T15:12:20;34.70;58.10
50570;DHT22;36525;49.398;7.614;2023-06-01T15:14:47;34.20;58.40
50570;DHT22;36525;49.398;7.614;2023-06-01T15:17:17;34.60;59.30
50570;DHT22;36525;49.398;7.614;2023-06-01T15:19:44;34.90;57.70
50570;DHT22;36525;49.398;7.614;2023-06-01T15:22:12;35.20;56.70
50570;DHT22;36525;49.398;7.614;2023-06-01T15:24:40;35.00;57.60
50570;DHT22;36525;49.398;7.614;2023-06-01T15:27:07;34.90;57.30
50570;DHT22;36525;49.398;7.614;2023-06-01T15:29:34;34.70;57.10
50570;DHT22;36525;49.398;7.614;2023-06-01T15:32:03;34.20;57.30
50570;DHT22;36525;49.398;7.614;2023-06-01T15:34:30;34.10;58.20
50570;DHT22;36525;49.398;7.614;2023-06-01T15:36:58;34.20;58.60
50570;DHT22;36525;49.398;7.614;2023-06-01T15:39:28;33.90;58.30
50570;DHT22;36525;49.398;7.614;2023-06-01T15:41:55;34.60;58.50
50570;DHT22;36525;49.398;7.614;2023-06-01T15:44:23;34.70;58.20
50570;DHT22;36525;49.398;7.614;2023-06-01T15:46:50;34.50;58.10
50570;DHT22;36525;49.398;7.614;2023-06-01T15:49:18;34.10;59.30
50570;DHT22;36525;49.398;7.614;2023-06-01T15:51:45;34.30;58.70
50570;DHT22;36525;49.398;7.614;2023-06-01T15:54:13;34.20;58.70
50570;DHT22;36525;49.398;7.614;2023-06-01T15:56:41;34.10;59.00
50570;DHT22;36525;49.398;7.614;2023-06-01T15:59:14;34.20;59.50
50570;DHT22;36525;49.398;7.614;2023-06-01T16:01:41;34.30;58.30
50570;DHT22;36525;49.398;7.614;2023-06-01T16:04:08;34.00;58.00
50570;DHT22;36525;49.398;7.614;2023-06-01T16:06:35;33.60;58.10
50570;DHT22;36525;49.398;7.614;2023-06-01T16:09:02;33.60;58.70
50570;DHT22;36525;49.398;7.614;2023-06-01T16:11:30;34.00;58.20
50570;DHT22;36525;49.398;7.614;2023-06-01T16:13:56;34.20;58.80
50570;DHT22;36525;49.398;7.614;2023-06-01T16:16:24;34.40;58.90
50570;DHT22;36525;49.398;7.614;2023-06-01T16:18:51;34.20;58.60
50570;DHT22;36525;49.398;7.614;2023-06-01T16:21:18;33.70;59.60